sensor_id;sensor_type;location;lat;lon;timestamp;P1;durP1;ratioP1;P2;durP2;ratioP2
78686;SDS011;68002;52.310;6.990;2023-04-28T00:01:52;6.07;;;2.80;;
78686;SDS011;68002;52.310;6.990;2023-04-28T00:04:17;6.87;;;2.87;;
78686;SDS011;68002;52.310;6.990;2023-04-28T00:06:43;5.10;;;2.40;;
78686;SDS011;68002;52.310;6.990;2023-04-28T00:09:08;4.83;;;2.67;;
78686;SDS011;68002;52.310;6.990;2023-04-28T00:11:33;5.00;;;2.60;;
78686;SDS011;68002;52.310;6.990;2023-04-28T00:13:58;5.80;;;2.50;;
78686;SDS011;68002;52.310;6.990;2023-04-28T00:16:23;4.50;;;2.47;;
78686;SDS011;68002;52.310;6.990;2023-04-28T00:18:48;5.00;;;2.10;;
78686;SDS011;68002;52.310;6.990;2023-04-28T00:21:14;4.73;;;2.67;;
78686;SDS011;68002;52.310;6.990;2023-04-28T00:23:39;5.87;;;3.23;;
78686;SDS011;68002;52.310;6.990;2023-04-28T00:26:04;6.20;;;2.83;;
78686;SDS011;68002;52.310;6.990;2023-04-28T00:28:29;5.27;;;1.93;;
78686;SDS011;68002;52.310;6.990;2023-04-28T00:30:54;6.27;;;2.57;;
78686;SDS011;68002;52.310;6.990;2023-04-28T00:33:20;4.00;;;2.33;;
78686;SDS011;68002;52.310;6.990;2023-04-28T00:35:45;5.63;;;2.57;;
78686;SDS011;68002;52.310;6.990;2023-04-28T00:38:10;5.20;;;2.80;;
78686;SDS011;68002;52.310;6.990;2023-04-28T00:40:36;6.07;;;2.50;;
78686;SDS011;68002;52.310;6.990;2023-04-28T00:43:03;4.20;;;2.45;;
78686;SDS011;68002;52.310;6.990;2023-04-28T00:45:28;4.70;;;2.63;;
78686;SDS011;68002;52.310;6.990;2023-04-28T00:47:54;6.28;;;3.97;;
78686;SDS011;68002;52.310;6.990;2023-04-28T00:50:19;4.05;;;2.53;;
78686;SDS011;68002;52.310;6.990;2023-04-28T00:52:46;4.53;;;2.63;;
78686;SDS011;68002;52.310;6.990;2023-04-28T00:55:11;4.03;;;2.45;;
78686;SDS011;68002;52.310;6.990;2023-04-28T00:57:39;5.25;;;2.55;;
78686;SDS011;68002;52.310;6.990;2023-04-28T01:00:05;4.47;;;2.42;;
78686;SDS011;68002;52.310;6.990;2023-04-28T01:02:31;5.65;;;2.67;;
78686;SDS011;68002;52.310;6.990;2023-04-28T01:04:56;4.47;;;2.63;;
78686;SDS011;68002;52.310;6.990;2023-04-28T01:07:22;4.43;;;2.40;;
78686;SDS011;68002;52.310;6.990;2023-04-28T01:09:48;5.20;;;3.00;;
78686;SDS011;68002;52.310;6.990;2023-04-28T01:12:13;2.97;;;1.83;;
78686;SDS011;68002;52.310;6.990;2023-04-28T01:14:38;7.20;;;3.23;;
78686;SDS011;68002;52.310;6.990;2023-04-28T01:17:04;4.22;;;2.72;;
78686;SDS011;68002;52.310;6.990;2023-04-28T01:19:29;4.63;;;2.90;;
78686;SDS011;68002;52.310;6.990;2023-04-28T01:21:54;5.40;;;2.57;;
78686;SDS011;68002;52.310;6.990;2023-04-28T01:24:20;4.37;;;2.40;;
78686;SDS011;68002;52.310;6.990;2023-04-28T01:26:45;5.35;;;3.00;;
78686;SDS011;68002;52.310;6.990;2023-04-28T01:29:10;5.97;;;2.80;;
78686;SDS011;68002;52.310;6.990;2023-04-28T01:31:36;4.82;;;2.55;;
78686;SDS011;68002;52.310;6.990;2023-04-28T01:34:01;6.03;;;2.33;;
78686;SDS011;68002;52.310;6.990;2023-04-28T01:36:26;5.30;;;2.33;;
78686;SDS011;68002;52.310;6.990;2023-04-28T01:38:51;4.10;;;2.40;;
78686;SDS011;68002;52.310;6.990;2023-04-28T01:41:17;6.50;;;3.00;;
78686;SDS011;68002;52.310;6.990;2023-04-28T01:43:42;5.90;;;2.87;;
78686;SDS011;68002;52.310;6.990;2023-04-28T01:46:07;5.10;;;3.07;;
78686;SDS011;68002;52.310;6.990;2023-04-28T01:48:32;4.17;;;2.50;;
78686;SDS011;68002;52.310;6.990;2023-04-28T01:50:57;5.40;;;2.77;;
78686;SDS011;68002;52.310;6.990;2023-04-28T01:53:23;4.80;;;2.40;;
78686;SDS011;68002;52.310;6.990;2023-04-28T01:55:48;5.70;;;2.90;;
78686;SDS011;68002;52.310;6.990;2023-04-28T01:58:13;4.73;;;2.57;;
78686;SDS011;68002;52.310;6.990;2023-04-28T02:00:38;5.83;;;3.20;;
78686;SDS011;68002;52.310;6.990;2023-04-28T02:03:04;5.10;;;2.80;;
78686;SDS011;68002;52.310;6.990;2023-04-28T02:05:29;6.50;;;2.40;;
78686;SDS011;68002;52.310;6.990;2023-04-28T02:07:54;5.80;;;2.70;;
78686;SDS011;68002;52.310;6.990;2023-04-28T02:10:19;5.67;;;3.10;;
78686;SDS011;68002;52.310;6.990;2023-04-28T02:12:44;6.40;;;2.77;;
78686;SDS011;68002;52.310;6.990;2023-04-28T02:15:10;4.53;;;2.60;;
78686;SDS011;68002;52.310;6.990;2023-04-28T02:17:35;4.53;;;2.70;;
78686;SDS011;68002;52.310;6.990;2023-04-28T02:20:00;6.07;;;2.87;;
78686;SDS011;68002;52.310;6.990;2023-04-28T02:22:25;4.23;;;2.53;;
78686;SDS011;68002;52.310;6.990;2023-04-28T02:24:50;4.50;;;2.20;;
78686;SDS011;68002;52.310;6.990;2023-04-28T02:27:16;4.80;;;2.97;;
78686;SDS011;68002;52.310;6.990;2023-04-28T02:29:41;5.90;;;2.90;;
78686;SDS011;68002;52.310;6.990;2023-04-28T02:32:06;5.77;;;2.70;;
78686;SDS011;68002;52.310;6.990;2023-04-28T02:34:32;4.50;;;2.65;;
78686;SDS011;68002;52.310;6.990;2023-04-28T02:36:57;7.13;;;2.70;;
78686;SDS011;68002;52.310;6.990;2023-04-28T02:39:22;5.60;;;2.70;;
78686;SDS011;68002;52.310;6.990;2023-04-28T02:41:47;6.23;;;2.90;;
78686;SDS011;68002;52.310;6.990;2023-04-28T02:44:13;5.07;;;2.37;;
78686;SDS011;68002;52.310;6.990;2023-04-28T02:46:38;5.63;;;2.97;;
78686;SDS011;68002;52.310;6.990;2023-04-28T02:49:03;5.80;;;2.73;;
78686;SDS011;68002;52.310;6.990;2023-04-28T02:51:28;4.60;;;2.60;;
78686;SDS011;68002;52.310;6.990;2023-04-28T02:53:53;3.93;;;2.30;;
78686;SDS011;68002;52.310;6.990;2023-04-28T02:56:19;5.03;;;2.90;;
78686;SDS011;68002;52.310;6.990;2023-04-28T02:58:44;3.97;;;2.40;;
78686;SDS011;68002;52.310;6.990;2023-04-28T03:01:09;5.67;;;2.73;;
78686;SDS011;68002;52.310;6.990;2023-04-28T03:03:34;4.70;;;2.50;;
78686;SDS011;68002;52.310;6.990;2023-04-28T03:05:59;5.13;;;3.17;;
78686;SDS011;68002;52.310;6.990;2023-04-28T03:08:25;7.53;;;3.07;;
78686;SDS011;68002;52.310;6.990;2023-04-28T03:10:50;5.73;;;2.77;;
78686;SDS011;68002;52.310;6.990;2023-04-28T03:13:15;5.67;;;3.37;;
78686;SDS011;68002;52.310;6.990;2023-04-28T03:15:40;4.97;;;2.50;;
78686;SDS011;68002;52.310;6.990;2023-04-28T03:18:05;5.93;;;2.77;;
78686;SDS011;68002;52.310;6.990;2023-04-28T03:20:31;5.67;;;2.30;;
78686;SDS011;68002;52.310;6.990;2023-04-28T03:22:56;4.93;;;2.80;;
78686;SDS011;68002;52.310;6.990;2023-04-28T03:25:21;5.70;;;2.60;;
78686;SDS011;68002;52.310;6.990;2023-04-28T03:27:46;5.17;;;2.23;;
78686;SDS011;68002;52.310;6.990;2023-04-28T03:30:11;5.47;;;2.57;;
78686;SDS011;68002;52.310;6.990;2023-04-28T03:32:37;5.90;;;3.20;;
78686;SDS011;68002;52.310;6.990;2023-04-28T03:35:02;5.70;;;2.37;;
78686;SDS011;68002;52.310;6.990;2023-04-28T03:37:28;4.55;;;2.35;;
78686;SDS011;68002;52.310;6.990;2023-04-28T03:39:53;6.67;;;3.03;;
78686;SDS011;68002;52.310;6.990;2023-04-28T03:42:18;4.57;;;2.43;;
78686;SDS011;68002;52.310;6.990;2023-04-28T03:44:43;5.40;;;3.03;;
78686;SDS011;68002;52.310;6.990;2023-04-28T03:47:09;5.77;;;2.73;;
78686;SDS011;68002;52.310;6.990;2023-04-28T03:49:34;6.23;;;2.73;;
78686;SDS011;68002;52.310;6.990;2023-04-28T03:51:59;8.33;;;2.83;;
78686;SDS011;68002;52.310;6.990;2023-04-28T03:54:24;6.27;;;3.10;;
78686;SDS011;68002;52.310;6.990;2023-04-28T03:56:49;4.43;;;2.37;;
78686;SDS011;68002;52.310;6.990;2023-04-28T03:59:15;4.50;;;2.50;;
78686;SDS011;68002;52.310;6.990;2023-04-28T04:01:40;6.47;;;2.20;;
78686;SDS011;68002;52.310;6.990;2023-04-28T04:04:05;4.70;;;2.57;;
78686;SDS011;68002;52.310;6.990;2023-04-28T04:06:30;5.67;;;3.00;;
78686;SDS011;68002;52.310;6.990;2023-04-28T04:08:56;6.13;;;3.08;;
78686;SDS011;68002;52.310;6.990;2023-04-28T04:11:21;5.30;;;2.33;;
78686;SDS011;68002;52.310;6.990;2023-04-28T04:13:46;5.73;;;3.23;;
78686;SDS011;68002;52.310;6.990;2023-04-28T04:16:11;5.63;;;2.47;;
78686;SDS011;68002;52.310;6.990;2023-04-28T04:18:37;5.07;;;2.90;;
78686;SDS011;68002;52.310;6.990;2023-04-28T04:21:02;4.87;;;2.97;;
78686;SDS011;68002;52.310;6.990;2023-04-28T04:23:27;5.83;;;2.63;;
78686;SDS011;68002;52.310;6.990;2023-04-28T04:25:52;5.00;;;2.50;;
78686;SDS011;68002;52.310;6.990;2023-04-28T04:28:17;3.83;;;2.00;;
78686;SDS011;68002;52.310;6.990;2023-04-28T04:30:43;6.27;;;3.37;;
78686;SDS011;68002;52.310;6.990;2023-04-28T04:33:08;4.60;;;2.80;;
78686;SDS011;68002;52.310;6.990;2023-04-28T04:35:33;5.20;;;2.87;;
78686;SDS011;68002;52.310;6.990;2023-04-28T04:37:59;5.93;;;2.63;;
78686;SDS011;68002;52.310;6.990;2023-04-28T04:40:24;4.55;;;2.85;;
78686;SDS011;68002;52.310;6.990;2023-04-28T04:42:49;4.90;;;2.60;;
78686;SDS011;68002;52.310;6.990;2023-04-28T04:45:15;4.60;;;2.53;;
78686;SDS011;68002;52.310;6.990;2023-04-28T04:47:40;5.63;;;3.10;;
78686;SDS011;68002;52.310;6.990;2023-04-28T04:50:05;6.53;;;2.80;;
78686;SDS011;68002;52.310;6.990;2023-04-28T04:52:31;5.50;;;2.60;;
78686;SDS011;68002;52.310;6.990;2023-04-28T04:54:56;5.63;;;2.53;;
78686;SDS011;68002;52.310;6.990;2023-04-28T04:57:22;3.70;;;2.30;;
78686;SDS011;68002;52.310;6.990;2023-04-28T04:59:47;5.30;;;2.67;;
78686;SDS011;68002;52.310;6.990;2023-04-28T05:02:12;5.17;;;2.33;;
78686;SDS011;68002;52.310;6.990;2023-04-28T05:04:37;4.83;;;3.60;;
78686;SDS011;68002;52.310;6.990;2023-04-28T05:07:03;4.73;;;2.97;;
78686;SDS011;68002;52.310;6.990;2023-04-28T05:09:28;4.90;;;2.73;;
78686;SDS011;68002;52.310;6.990;2023-04-28T05:11:53;5.43;;;3.20;;
78686;SDS011;68002;52.310;6.990;2023-04-28T05:14:18;6.17;;;2.50;;
78686;SDS011;68002;52.310;6.990;2023-04-28T05:16:43;5.20;;;2.23;;
78686;SDS011;68002;52.310;6.990;2023-04-28T05:19:09;5.60;;;3.27;;
78686;SDS011;68002;52.310;6.990;2023-04-28T05:21:34;5.57;;;3.10;;
78686;SDS011;68002;52.310;6.990;2023-04-28T05:23:59;6.23;;;2.43;;
78686;SDS011;68002;52.310;6.990;2023-04-28T05:26:24;6.00;;;2.63;;
78686;SDS011;68002;52.310;6.990;2023-04-28T05:28:49;6.27;;;2.57;;
78686;SDS011;68002;52.310;6.990;2023-04-28T05:31:15;5.70;;;2.42;;
78686;SDS011;68002;52.310;6.990;2023-04-28T05:33:40;7.43;;;2.50;;
78686;SDS011;68002;52.310;6.990;2023-04-28T05:36:06;6.28;;;2.63;;
78686;SDS011;68002;52.310;6.990;2023-04-28T05:38:31;5.78;;;3.13;;
78686;SDS011;68002;52.310;6.990;2023-04-28T05:40:57;6.43;;;2.77;;
78686;SDS011;68002;52.310;6.990;2023-04-28T05:43:22;5.53;;;2.37;;
78686;SDS011;68002;52.310;6.990;2023-04-28T05:45:47;5.20;;;2.67;;
78686;SDS011;68002;52.310;6.990;2023-04-28T05:48:12;5.87;;;3.07;;
78686;SDS011;68002;52.310;6.990;2023-04-28T05:50:38;5.73;;;3.80;;
78686;SDS011;68002;52.310;6.990;2023-04-28T05:53:03;5.43;;;3.07;;
78686;SDS011;68002;52.310;6.990;2023-04-28T05:55:28;5.13;;;2.50;;
78686;SDS011;68002;52.310;6.990;2023-04-28T05:57:53;4.07;;;2.73;;
78686;SDS011;68002;52.310;6.990;2023-04-28T06:00:18;8.17;;;3.63;;
78686;SDS011;68002;52.310;6.990;2023-04-28T06:02:44;6.13;;;4.03;;
78686;SDS011;68002;52.310;6.990;2023-04-28T06:05:09;7.70;;;2.80;;
78686;SDS011;68002;52.310;6.990;2023-04-28T06:07:34;4.63;;;3.13;;
78686;SDS011;68002;52.310;6.990;2023-04-28T06:10:00;7.10;;;3.13;;
78686;SDS011;68002;52.310;6.990;2023-04-28T06:12:25;6.07;;;2.67;;
78686;SDS011;68002;52.310;6.990;2023-04-28T06:14:50;6.77;;;3.73;;
78686;SDS011;68002;52.310;6.990;2023-04-28T06:17:15;5.73;;;2.63;;
78686;SDS011;68002;52.310;6.990;2023-04-28T06:19:40;7.00;;;3.53;;
78686;SDS011;68002;52.310;6.990;2023-04-28T06:22:06;7.47;;;3.37;;
78686;SDS011;68002;52.310;6.990;2023-04-28T06:24:31;5.73;;;3.50;;
78686;SDS011;68002;52.310;6.990;2023-04-28T06:26:56;6.30;;;3.90;;
78686;SDS011;68002;52.310;6.990;2023-04-28T06:29:21;9.57;;;4.57;;
78686;SDS011;68002;52.310;6.990;2023-04-28T06:31:47;6.60;;;3.67;;
78686;SDS011;68002;52.310;6.990;2023-04-28T06:34:12;6.97;;;3.43;;
78686;SDS011;68002;52.310;6.990;2023-04-28T06:36:37;6.33;;;3.63;;
78686;SDS011;68002;52.310;6.990;2023-04-28T06:39:03;7.10;;;3.60;;
78686;SDS011;68002;52.310;6.990;2023-04-28T06:41:28;7.32;;;4.38;;
78686;SDS011;68002;52.310;6.990;2023-04-28T06:43:53;6.23;;;3.80;;
78686;SDS011;68002;52.310;6.990;2023-04-28T06:46:18;6.37;;;3.50;;
78686;SDS011;68002;52.310;6.990;2023-04-28T06:48:44;7.27;;;4.03;;
78686;SDS011;68002;52.310;6.990;2023-04-28T06:51:09;9.50;;;3.13;;
78686;SDS011;68002;52.310;6.990;2023-04-28T06:53:34;6.20;;;3.67;;
78686;SDS011;68002;52.310;6.990;2023-04-28T06:55:59;9.00;;;4.23;;
78686;SDS011;68002;52.310;6.990;2023-04-28T06:58:25;9.40;;;4.00;;
78686;SDS011;68002;52.310;6.990;2023-04-28T07:00:50;7.60;;;3.30;;
78686;SDS011;68002;52.310;6.990;2023-04-28T07:03:15;10.13;;;4.67;;
78686;SDS011;68002;52.310;6.990;2023-04-28T07:05:40;5.53;;;3.37;;
78686;SDS011;68002;52.310;6.990;2023-04-28T07:08:05;5.70;;;3.20;;
78686;SDS011;68002;52.310;6.990;2023-04-28T07:10:31;6.53;;;3.47;;
78686;SDS011;68002;52.310;6.990;2023-04-28T07:12:56;4.67;;;3.20;;
78686;SDS011;68002;52.310;6.990;2023-04-28T07:15:21;7.00;;;3.43;;
78686;SDS011;68002;52.310;6.990;2023-04-28T07:17:47;5.45;;;3.28;;
78686;SDS011;68002;52.310;6.990;2023-04-28T07:20:13;7.37;;;4.20;;
78686;SDS011;68002;52.310;6.990;2023-04-28T07:22:38;5.47;;;3.47;;
78686;SDS011;68002;52.310;6.990;2023-04-28T07:25:04;6.50;;;3.50;;
78686;SDS011;68002;52.310;6.990;2023-04-28T07:27:29;6.30;;;3.00;;
78686;SDS011;68002;52.310;6.990;2023-04-28T07:29:54;7.27;;;4.47;;
78686;SDS011;68002;52.310;6.990;2023-04-28T07:32:19;5.93;;;3.67;;
78686;SDS011;68002;52.310;6.990;2023-04-28T07:34:45;6.83;;;3.67;;
78686;SDS011;68002;52.310;6.990;2023-04-28T07:37:10;6.90;;;3.97;;
78686;SDS011;68002;52.310;6.990;2023-04-28T07:39:35;6.23;;;3.17;;
78686;SDS011;68002;52.310;6.990;2023-04-28T07:42:01;6.73;;;4.47;;
78686;SDS011;68002;52.310;6.990;2023-04-28T07:44:26;8.45;;;3.97;;
78686;SDS011;68002;52.310;6.990;2023-04-28T07:46:52;7.57;;;3.73;;
78686;SDS011;68002;52.310;6.990;2023-04-28T07:49:17;7.45;;;4.25;;
78686;SDS011;68002;52.310;6.990;2023-04-28T07:51:42;7.00;;;4.07;;
78686;SDS011;68002;52.310;6.990;2023-04-28T07:54:07;7.17;;;4.60;;
78686;SDS011;68002;52.310;6.990;2023-04-28T07:56:33;8.13;;;4.43;;
78686;SDS011;68002;52.310;6.990;2023-04-28T07:58:58;6.77;;;3.83;;
78686;SDS011;68002;52.310;6.990;2023-04-28T08:01:23;8.03;;;4.13;;
78686;SDS011;68002;52.310;6.990;2023-04-28T08:03:48;8.37;;;5.17;;
78686;SDS011;68002;52.310;6.990;2023-04-28T08:06:14;10.03;;;5.13;;
78686;SDS011;68002;52.310;6.990;2023-04-28T08:08:39;8.60;;;4.93;;
78686;SDS011;68002;52.310;6.990;2023-04-28T08:11:04;8.60;;;5.03;;
78686;SDS011;68002;52.310;6.990;2023-04-28T08:13:30;11.00;;;5.60;;
78686;SDS011;68002;52.310;6.990;2023-04-28T08:15:56;8.75;;;4.45;;
78686;SDS011;68002;52.310;6.990;2023-04-28T08:18:22;8.70;;;5.17;;
78686;SDS011;68002;52.310;6.990;2023-04-28T08:20:47;7.32;;;3.90;;
78686;SDS011;68002;52.310;6.990;2023-04-28T08:23:13;8.87;;;5.73;;
78686;SDS011;68002;52.310;6.990;2023-04-28T08:25:38;9.00;;;5.60;;
78686;SDS011;68002;52.310;6.990;2023-04-28T08:28:03;10.13;;;6.00;;
78686;SDS011;68002;52.310;6.990;2023-04-28T08:30:28;11.30;;;6.47;;
78686;SDS011;68002;52.310;6.990;2023-04-28T08:32:54;8.30;;;4.77;;
78686;SDS011;68002;52.310;6.990;2023-04-28T08:35:20;7.97;;;4.70;;
78686;SDS011;68002;52.310;6.990;2023-04-28T08:37:45;10.23;;;5.40;;
78686;SDS011;68002;52.310;6.990;2023-04-28T08:40:11;11.00;;;5.55;;
78686;SDS011;68002;52.310;6.990;2023-04-28T08:42:36;11.23;;;7.20;;
78686;SDS011;68002;52.310;6.990;2023-04-28T08:45:04;9.20;;;5.80;;
78686;SDS011;68002;52.310;6.990;2023-04-28T08:47:37;11.02;;;6.30;;
78686;SDS011;68002;52.310;6.990;2023-04-28T08:50:03;10.30;;;6.72;;
78686;SDS011;68002;52.310;6.990;2023-04-28T08:52:30;11.85;;;8.10;;
78686;SDS011;68002;52.310;6.990;2023-04-28T08:54:59;10.30;;;6.07;;
78686;SDS011;68002;52.310;6.990;2023-04-28T08:57:29;11.57;;;7.72;;
78686;SDS011;68002;52.310;6.990;2023-04-28T08:59:59;11.18;;;6.95;;
78686;SDS011;68002;52.310;6.990;2023-04-28T09:02:24;11.57;;;6.22;;
78686;SDS011;68002;52.310;6.990;2023-04-28T09:04:50;10.90;;;6.63;;
78686;SDS011;68002;52.310;6.990;2023-04-28T09:07:15;10.70;;;6.70;;
78686;SDS011;68002;52.310;6.990;2023-04-28T09:09:40;9.57;;;5.03;;
78686;SDS011;68002;52.310;6.990;2023-04-28T09:12:05;9.70;;;6.33;;
78686;SDS011;68002;52.310;6.990;2023-04-28T09:14:32;9.85;;;5.82;;
78686;SDS011;68002;52.310;6.990;2023-04-28T09:16:59;13.45;;;8.48;;
78686;SDS011;68002;52.310;6.990;2023-04-28T09:19:32;13.70;;;7.60;;
78686;SDS011;68002;52.310;6.990;2023-04-28T09:21:58;14.98;;;8.25;;
78686;SDS011;68002;52.310;6.990;2023-04-28T09:24:27;11.27;;;7.93;;
78686;SDS011;68002;52.310;6.990;2023-04-28T09:26:52;10.88;;;7.18;;
78686;SDS011;68002;52.310;6.990;2023-04-28T09:29:17;15.47;;;8.93;;
78686;SDS011;68002;52.310;6.990;2023-04-28T09:31:43;13.77;;;7.97;;
78686;SDS011;68002;52.310;6.990;2023-04-28T09:34:08;11.03;;;7.93;;
78686;SDS011;68002;52.310;6.990;2023-04-28T09:36:33;13.30;;;7.63;;
78686;SDS011;68002;52.310;6.990;2023-04-28T09:38:59;12.40;;;8.00;;
78686;SDS011;68002;52.310;6.990;2023-04-28T09:41:37;11.85;;;7.70;;
78686;SDS011;68002;52.310;6.990;2023-04-28T09:44:10;11.63;;;6.50;;
78686;SDS011;68002;52.310;6.990;2023-04-28T09:46:35;11.60;;;7.53;;
78686;SDS011;68002;52.310;6.990;2023-04-28T09:49:01;9.33;;;6.00;;
78686;SDS011;68002;52.310;6.990;2023-04-28T09:51:26;11.67;;;6.53;;
78686;SDS011;68002;52.310;6.990;2023-04-28T09:53:51;12.13;;;7.13;;
78686;SDS011;68002;52.310;6.990;2023-04-28T09:56:18;14.38;;;7.05;;
78686;SDS011;68002;52.310;6.990;2023-04-28T09:58:45;10.27;;;6.55;;
78686;SDS011;68002;52.310;6.990;2023-04-28T10:01:13;11.52;;;5.45;;
78686;SDS011;68002;52.310;6.990;2023-04-28T10:03:39;9.57;;;6.45;;
78686;SDS011;68002;52.310;6.990;2023-04-28T10:06:05;6.78;;;4.90;;
78686;SDS011;68002;52.310;6.990;2023-04-28T10:08:30;9.73;;;5.60;;
78686;SDS011;68002;52.310;6.990;2023-04-28T10:10:56;9.70;;;6.22;;
78686;SDS011;68002;52.310;6.990;2023-04-28T10:13:22;8.80;;;6.22;;
78686;SDS011;68002;52.310;6.990;2023-04-28T10:15:51;8.98;;;6.18;;
78686;SDS011;68002;52.310;6.990;2023-04-28T10:18:16;9.05;;;6.07;;
78686;SDS011;68002;52.310;6.990;2023-04-28T10:20:45;8.63;;;6.67;;
78686;SDS011;68002;52.310;6.990;2023-04-28T10:25:56;7.35;;;5.53;;
78686;SDS011;68002;52.310;6.990;2023-04-28T10:28:22;8.93;;;8.03;;
78686;SDS011;68002;52.310;6.990;2023-04-28T10:33:40;8.45;;;5.65;;
78686;SDS011;68002;52.310;6.990;2023-04-28T10:36:06;8.77;;;6.38;;
78686;SDS011;68002;52.310;6.990;2023-04-28T10:38:32;8.73;;;6.43;;
78686;SDS011;68002;52.310;6.990;2023-04-28T10:40:58;9.77;;;7.90;;
78686;SDS011;68002;52.310;6.990;2023-04-28T10:48:17;11.32;;;6.28;;
78686;SDS011;68002;52.310;6.990;2023-04-28T10:56:07;8.90;;;5.95;;
78686;SDS011;68002;52.310;6.990;2023-04-28T10:58:33;7.88;;;6.15;;
78686;SDS011;68002;52.310;6.990;2023-04-28T11:09:02;7.82;;;5.63;;
78686;SDS011;68002;52.310;6.990;2023-04-28T11:11:30;9.35;;;6.72;;
78686;SDS011;68002;52.310;6.990;2023-04-28T11:19:22;10.30;;;7.20;;
78686;SDS011;68002;52.310;6.990;2023-04-28T11:21:50;9.68;;;7.80;;
78686;SDS011;68002;52.310;6.990;2023-04-28T11:24:16;10.15;;;6.90;;
78686;SDS011;68002;52.310;6.990;2023-04-28T11:26:42;9.85;;;7.47;;
78686;SDS011;68002;52.310;6.990;2023-04-28T11:29:08;10.43;;;6.32;;
78686;SDS011;68002;52.310;6.990;2023-04-28T11:31:33;12.20;;;9.32;;
78686;SDS011;68002;52.310;6.990;2023-04-28T11:36:28;9.43;;;7.57;;
78686;SDS011;68002;52.310;6.990;2023-04-28T11:39:01;11.65;;;7.53;;
78686;SDS011;68002;52.310;6.990;2023-04-28T11:41:28;10.25;;;6.95;;
78686;SDS011;68002;52.310;6.990;2023-04-28T11:43:53;9.73;;;6.87;;
78686;SDS011;68002;52.310;6.990;2023-04-28T11:46:19;11.57;;;7.87;;
78686;SDS011;68002;52.310;6.990;2023-04-28T11:48:45;11.00;;;8.23;;
78686;SDS011;68002;52.310;6.990;2023-04-28T11:51:30;11.57;;;7.97;;
78686;SDS011;68002;52.310;6.990;2023-04-28T11:53:59;11.20;;;8.88;;
78686;SDS011;68002;52.310;6.990;2023-04-28T11:56:25;11.45;;;7.82;;
78686;SDS011;68002;52.310;6.990;2023-04-28T12:01:47;12.90;;;9.70;;
78686;SDS011;68002;52.310;6.990;2023-04-28T12:04:25;13.02;;;9.85;;
78686;SDS011;68002;52.310;6.990;2023-04-28T12:07:16;13.48;;;9.73;;
78686;SDS011;68002;52.310;6.990;2023-04-28T12:09:43;13.23;;;10.05;;
78686;SDS011;68002;52.310;6.990;2023-04-28T12:17:31;13.75;;;9.43;;
78686;SDS011;68002;52.310;6.990;2023-04-28T12:20:05;14.43;;;10.45;;
78686;SDS011;68002;52.310;6.990;2023-04-28T12:22:44;13.45;;;10.07;;
78686;SDS011;68002;52.310;6.990;2023-04-28T12:25:11;12.80;;;10.02;;
78686;SDS011;68002;52.310;6.990;2023-04-28T12:27:38;12.93;;;9.27;;
78686;SDS011;68002;52.310;6.990;2023-04-28T12:32:44;12.60;;;9.75;;
78686;SDS011;68002;52.310;6.990;2023-04-28T12:35:10;14.75;;;12.30;;
78686;SDS011;68002;52.310;6.990;2023-04-28T12:37:35;14.07;;;9.27;;
78686;SDS011;68002;52.310;6.990;2023-04-28T12:40:01;12.60;;;9.15;;
78686;SDS011;68002;52.310;6.990;2023-04-28T12:42:26;15.80;;;11.20;;
78686;SDS011;68002;52.310;6.990;2023-04-28T12:44:51;15.57;;;11.43;;
78686;SDS011;68002;52.310;6.990;2023-04-28T12:47:16;15.47;;;11.77;;
78686;SDS011;68002;52.310;6.990;2023-04-28T12:49:41;19.60;;;12.83;;
78686;SDS011;68002;52.310;6.990;2023-04-28T12:52:07;18.55;;;13.65;;
78686;SDS011;68002;52.310;6.990;2023-04-28T12:54:32;19.57;;;12.50;;
78686;SDS011;68002;52.310;6.990;2023-04-28T12:56:57;17.73;;;15.20;;
78686;SDS011;68002;52.310;6.990;2023-04-28T12:59:23;19.00;;;13.07;;
78686;SDS011;68002;52.310;6.990;2023-04-28T13:01:48;16.43;;;11.73;;
78686;SDS011;68002;52.310;6.990;2023-04-28T13:04:14;20.10;;;14.65;;
78686;SDS011;68002;52.310;6.990;2023-04-28T13:06:39;18.87;;;11.97;;
78686;SDS011;68002;52.310;6.990;2023-04-28T13:09:04;19.33;;;12.90;;
78686;SDS011;68002;52.310;6.990;2023-04-28T13:11:29;18.92;;;12.95;;
78686;SDS011;68002;52.310;6.990;2023-04-28T13:13:55;19.53;;;12.70;;
78686;SDS011;68002;52.310;6.990;2023-04-28T13:16:20;22.40;;;14.23;;
78686;SDS011;68002;52.310;6.990;2023-04-28T13:18:45;25.40;;;15.30;;
78686;SDS011;68002;52.310;6.990;2023-04-28T13:21:10;23.30;;;16.27;;
78686;SDS011;68002;52.310;6.990;2023-04-28T13:23:35;23.30;;;14.30;;
78686;SDS011;68002;52.310;6.990;2023-04-28T13:26:01;27.27;;;17.00;;
78686;SDS011;68002;52.310;6.990;2023-04-28T13:28:27;25.53;;;15.87;;
78686;SDS011;68002;52.310;6.990;2023-04-28T13:30:52;25.95;;;15.30;;
78686;SDS011;68002;52.310;6.990;2023-04-28T13:33:17;24.70;;;15.90;;
78686;SDS011;68002;52.310;6.990;2023-04-28T13:35:42;28.33;;;16.40;;
78686;SDS011;68002;52.310;6.990;2023-04-28T13:38:07;24.00;;;14.23;;
78686;SDS011;68002;52.310;6.990;2023-04-28T13:40:33;29.20;;;17.77;;
78686;SDS011;68002;52.310;6.990;2023-04-28T13:42:58;25.15;;;16.38;;
78686;SDS011;68002;52.310;6.990;2023-04-28T13:45:23;27.67;;;17.97;;
78686;SDS011;68002;52.310;6.990;2023-04-28T13:47:48;26.67;;;17.80;;
78686;SDS011;68002;52.310;6.990;2023-04-28T13:50:14;21.83;;;13.73;;
78686;SDS011;68002;52.310;6.990;2023-04-28T13:52:39;21.73;;;12.53;;
78686;SDS011;68002;52.310;6.990;2023-04-28T13:55:04;19.60;;;12.10;;
78686;SDS011;68002;52.310;6.990;2023-04-28T13:57:30;22.63;;;14.32;;
78686;SDS011;68002;52.310;6.990;2023-04-28T13:59:55;23.77;;;15.40;;
78686;SDS011;68002;52.310;6.990;2023-04-28T14:02:20;22.00;;;14.10;;
78686;SDS011;68002;52.310;6.990;2023-04-28T14:04:45;27.20;;;16.10;;
78686;SDS011;68002;52.310;6.990;2023-04-28T14:07:11;20.63;;;13.30;;
78686;SDS011;68002;52.310;6.990;2023-04-28T14:09:36;19.10;;;12.30;;
78686;SDS011;68002;52.310;6.990;2023-04-28T14:12:01;18.70;;;11.63;;
78686;SDS011;68002;52.310;6.990;2023-04-28T14:14:26;17.63;;;11.23;;
78686;SDS011;68002;52.310;6.990;2023-04-28T14:16:51;20.30;;;13.30;;
78686;SDS011;68002;52.310;6.990;2023-04-28T14:19:17;20.33;;;13.77;;
78686;SDS011;68002;52.310;6.990;2023-04-28T14:21:42;15.30;;;10.53;;
78686;SDS011;68002;52.310;6.990;2023-04-28T14:24:08;18.73;;;11.40;;
78686;SDS011;68002;52.310;6.990;2023-04-28T14:26:33;17.10;;;11.20;;
78686;SDS011;68002;52.310;6.990;2023-04-28T14:28:58;14.87;;;8.87;;
78686;SDS011;68002;52.310;6.990;2023-04-28T14:31:23;12.63;;;8.93;;
78686;SDS011;68002;52.310;6.990;2023-04-28T14:33:48;14.40;;;8.97;;
78686;SDS011;68002;52.310;6.990;2023-04-28T14:36:14;12.57;;;8.50;;
78686;SDS011;68002;52.310;6.990;2023-04-28T14:38:39;10.67;;;7.27;;
78686;SDS011;68002;52.310;6.990;2023-04-28T14:41:04;9.50;;;6.30;;
78686;SDS011;68002;52.310;6.990;2023-04-28T14:43:29;12.10;;;6.20;;
78686;SDS011;68002;52.310;6.990;2023-04-28T14:45:54;9.33;;;5.63;;
78686;SDS011;68002;52.310;6.990;2023-04-28T14:48:20;11.10;;;6.40;;
78686;SDS011;68002;52.310;6.990;2023-04-28T14:50:45;10.25;;;6.18;;
78686;SDS011;68002;52.310;6.990;2023-04-28T14:53:11;8.57;;;5.75;;
78686;SDS011;68002;52.310;6.990;2023-04-28T14:55:36;9.13;;;6.30;;
78686;SDS011;68002;52.310;6.990;2023-04-28T14:58:01;11.93;;;6.57;;
78686;SDS011;68002;52.310;6.990;2023-04-28T15:00:26;10.13;;;6.73;;
78686;SDS011;68002;52.310;6.990;2023-04-28T15:02:52;10.73;;;7.10;;
78686;SDS011;68002;52.310;6.990;2023-04-28T15:05:17;12.35;;;8.00;;
78686;SDS011;68002;52.310;6.990;2023-04-28T15:07:42;10.23;;;6.00;;
78686;SDS011;68002;52.310;6.990;2023-04-28T15:10:08;10.27;;;7.10;;
78686;SDS011;68002;52.310;6.990;2023-04-28T15:12:33;10.67;;;6.43;;
78686;SDS011;68002;52.310;6.990;2023-04-28T15:14:58;11.80;;;7.78;;